Data for 12/08/2010

Time Sea-Level Adjusted Pressure Absolute Pressure Temperature Relative Humidity Dew Point   
(mb) (inHg) (mb) (inHg) (C) (F) (%) (C) (F)
00:05 1022 30.18 851 25.13 -2.4 27.7 79 -5.6 22
00:10 1022 30.18 851 25.13 -1.9 28.5 78 -5.3 22.4
00:15 1022 30.18 852 25.16 -2.1 28.3 79 -5.2 22.7
00:20 1022 30.18 852 25.16 -2.1 28.2 80 -5 23
00:25 1022 30.18 851 25.13 -2.1 28.2 80 -5.1 22.7
00:30 1022 30.18 851 25.13 -2.8 26.9 84 -5.1 22.8
00:35 1022 30.18 851 25.13 -3.3 26 86 -5.3 22.4
00:40 1022 30.18 851 25.13 -3.3 26.1 85 -5.5 22.1
00:45 1022 30.18 851 25.13 -3.2 26.2 85 -5.4 22.3
00:50 1022 30.18 851 25.13 -3.1 26.4 84 -5.4 22.3
00:55 1022 30.18 851 25.13 -3.1 26.3 85 -5.3 22.5
01:00 1022 30.18 851 25.13 -3 26.5 85 -5.3 22.5
01:05 1022 30.18 851 25.13 -2.9 26.9 85 -5.1 22.8
01:10 1022 30.18 851 25.13 -2.6 27.3 84 -4.9 23.2
01:15 1022 30.18 851 25.13 -2.4 27.7 82 -5 23
01:20 1022 30.18 851 25.13 -2.2 28.1 80 -5.1 22.8
01:25 1022 30.18 851 25.13 -2.1 28.2 80 -5.2 22.6
01:30 1021 30.15 851 25.13 -2.3 27.8 81 -5.1 22.8
01:35 1021 30.15 851 25.13 -2.2 28 81 -5.1 22.8
01:40 1021 30.15 850 25.1 -2.6 27.3 82 -5.2 22.6
01:45 1021 30.15 850 25.1 -3 26.6 83 -5.5 22.2
01:50 1021 30.15 850 25.1 -3.2 26.2 84 -5.5 22.2
01:55 1021 30.15 850 25.1 -3.2 26.2 85 -5.4 22.3
02:00 1021 30.15 850 25.1 -2.9 26.9 84 -5.2 22.6
02:05 1021 30.15 850 25.1 -2.6 27.3 83 -5.1 22.8
02:10 1021 30.15 850 25.1 -2.6 27.4 82 -5.2 22.7
02:15 1021 30.15 850 25.1 -2.9 26.7 84 -5.2 22.6
02:20 1021 30.15 850 25.1 -2.7 27.1 83 -5.2 22.6
02:25 1021 30.15 850 25.1 -2.5 27.4 82 -5.2 22.7
02:30 1021 30.15 850 25.1 -2.2 28 81 -5.1 22.7
02:35 1021 30.15 850 25.1 -2 28.4 80 -5.1 22.9
02:40 1021 30.15 850 25.1 -1.8 28.8 78 -5.1 22.7
02:45 1021 30.15 850 25.1 -1.4 29.6 76 -5 22.9
02:50 1021 30.15 850 25.1 -1.3 29.6 77 -4.9 23.2
02:55 1021 30.15 850 25.1 -1.4 29.5 76 -5 22.9
03:00 1021 30.15 850 25.1 -1.9 28.6 81 -4.7 23.5
03:05 1021 30.15 850 25.1 -3 26.6 84 -5.4 22.3
03:10 1021 30.15 850 25.1 -3.6 25.5 86 -5.7 21.8
03:15 1021 30.15 850 25.1 -4.2 24.5 87 -6 21.2
03:20 1020 30.12 850 25.1 -4.3 24.2 87 -6.1 20.9
03:25 1020 30.12 850 25.1 -4.5 23.9 88 -6.3 20.7
03:30 1020 30.12 850 25.1 -4.6 23.7 89 -6.2 20.8
03:35 1020 30.12 849 25.07 -4.8 23.3 90 -6.2 20.8
03:40 1020 30.12 849 25.07 -4.8 23.4 90 -6.2 20.9
03:45 1020 30.12 849 25.07 -4.3 24.2 91 -5.6 21.9
03:50 1020 30.12 849 25.07 -3.8 25.2 87 -5.6 21.9
03:55 1020 30.12 849 25.07 -3.8 25.1 86 -5.9 21.4
04:00 1020 30.12 850 25.1 -3.7 25.3 87 -5.6 21.8
04:05 1020 30.12 850 25.1 -3.1 26.4 83 -5.7 21.8
04:10 1020 30.12 850 25.1 -3.2 26.2 84 -5.6 22
04:15 1020 30.12 850 25.1 -3.8 25.2 85 -5.9 21.4
04:20 1020 30.12 850 25.1 -4.4 24.1 90 -5.8 21.6
04:25 1020 30.12 850 25.1 -3.8 25.2 89 -5.4 22.3
04:30 1020 30.12 850 25.1 -3.1 26.4 87 -5 23
04:35 1020 30.12 850 25.1 -2.6 27.3 84 -4.9 23.1
04:40 1020 30.12 849 25.07 -2.4 27.7 80 -5.3 22.4
04:45 1020 30.12 849 25.07 -3 26.7 82 -5.5 22
04:50 1020 30.12 849 25.07 -3.8 25.2 87 -5.6 22
04:55 1020 30.12 849 25.07 -4 24.9 89 -5.5 22.1
05:00 1020 30.12 849 25.07 -4.3 24.3 88 -6 21.3
05:05 1020 30.12 849 25.07 -4.7 23.5 90 -6.2 20.9
05:10 1020 30.12 849 25.07 -4.8 23.3 92 -5.9 21.3
05:15 1020 30.12 849 25.07 -4.4 24 89 -5.9 21.3
05:20 1020 30.12 849 25.07 -4.2 24.5 89 -5.7 21.7
05:25 1020 30.12 849 25.07 -3.7 25.4 90 -5.1 22.9
05:30 1020 30.12 849 25.07 -2.7 27.1 84 -5.1 22.8
05:35 1020 30.12 849 25.07 -3 26.7 87 -4.8 23.3
05:40 1020 30.12 849 25.07 -2.6 27.3 85 -4.8 23.4
05:45 1019 30.09 849 25.07 -3 26.6 86 -5 22.9
05:50 1020 30.12 849 25.07 -3 26.6 86 -5 23
05:55 1019 30.09 849 25.07 -2.5 27.6 83 -5 22.9
06:00 1019 30.09 848 25.04 -3.1 26.4 86 -5.2 22.6
06:05 1019 30.09 848 25.04 -3.6 25.6 86 -5.6 21.9
06:10 1019 30.09 848 25.04 -3.8 25.2 86 -5.7 21.7
06:15 1019 30.09 848 25.04 -3.9 24.9 87 -5.7 21.7
06:20 1019 30.09 848 25.04 -3.8 25.1 87 -5.7 21.8
06:25 1019 30.09 848 25.04 -3.7 25.4 87 -5.5 22.2
06:30 1019 30.09 848 25.04 -3.4 25.8 87 -5.3 22.5
06:35 1019 30.09 848 25.04 -3.3 26.1 86 -5.3 22.5
06:40 1019 30.09 848 25.04 -3.3 26.1 86 -5.4 22.3
06:45 1018 30.06 848 25.04 -3.3 26.1 86 -5.3 22.4
06:50 1018 30.06 848 25.04 -3.2 26.2 85 -5.4 22.3
06:55 1018 30.06 848 25.04 -3 26.7 84 -5.3 22.5
07:00 1018 30.06 848 25.04 -2.6 27.3 83 -5.1 22.8
07:05 1018 30.06 847 25.01 -2.8 27 83 -5.3 22.4
07:10 1018 30.06 847 25.01 -3.2 26.2 85 -5.4 22.2
07:15 1018 30.06 847 25.01 -3.2 26.3 84 -5.5 22.2
07:20 1018 30.06 847 25.01 -2.8 27 83 -5.4 22.3
07:25 1018 30.06 847 25.01 -2.3 27.9 81 -5 22.9
07:30 1018 30.06 847 25.01 -1.8 28.8 79 -5 23
07:35 1018 30.06 847 25.01 -1.8 28.8 78 -5.1 22.9
07:40 1018 30.06 847 25.01 -1.6 29.1 77 -5.2 22.7
07:45 1017 30.03 847 25.01 -1.4 29.4 77 -5 23
07:50 1017 30.03 847 25.01 -1.4 29.5 77 -5 23.1
07:55 1017 30.03 847 25.01 -1.7 29 78 -5 23
08:00 1017 30.03 846 24.98 -2 28.5 79 -5.2 22.7
08:05 1017 30.03 846 24.98 -2.1 28.3 79 -5.3 22.5
08:10 1017 30.03 847 25.01 -2.1 28.2 79 -5.2 22.6
08:15 1017 30.03 846 24.98 -2.2 28 80 -5.3 22.5
08:20 1017 30.03 846 24.98 -2.1 28.2 79 -5.2 22.7
08:25 1017 30.03 846 24.98 -1.7 28.9 77 -5.2 22.7
08:30 1017 30.03 846 24.98 -1.3 29.6 76 -5 23.1
08:35 1017 30.03 847 25.01 -1.2 29.9 76 -4.8 23.3
08:40 1017 30.03 846 24.98 -1 30.2 75 -4.9 23.2
08:45 1017 30.03 846 24.98 -0.7 30.7 74 -4.8 23.3
08:50 1017 30.03 846 24.98 -0.7 30.8 75 -4.6 23.7
08:55 1017 30.03 846 24.98 -0.9 30.4 76 -4.6 23.7
09:00 1017 30.03 846 24.98 -0.9 30.4 76 -4.7 23.6
09:05 1017 30.03 846 24.98 -0.7 30.8 75 -4.6 23.7
09:10 1017 30.03 846 24.98 -0.8 30.5 76 -4.6 23.8
09:15 1017 30.03 846 24.98 -0.9 30.4 76 -4.6 23.8
09:20 1017 30.03 846 24.98 -1 30.3 77 -4.6 23.8
09:25 1017 30.03 846 24.98 -0.7 30.7 75 -4.6 23.6
09:30 1017 30.03 846 24.98 -0.5 31.1 75 -4.5 24
09:35 1017 30.03 846 24.98 -0.5 31.2 75 -4.4 24.1
09:40 1017 30.03 846 24.98 -0.5 31.1 73 -4.7 23.5
09:45 1017 30.03 846 24.98 -0.1 31.8 72 -4.6 23.8
09:50 1017 30.03 846 24.98 0.2 32.4 71 -4.5 23.9
09:55 1016 30 846 24.98 0.4 32.7 71 -4.2 24.4
10:00 1016 30 846 24.98 0.4 32.7 71 -4.2 24.4
10:05 1016 30 846 24.98 0.4 32.6 72 -4.2 24.4
10:10 1016 30 845 24.95 0.5 32.8 72 -3.9 24.9
10:15 1016 30 845 24.95 0.4 32.8 72 -4.1 24.6
10:20 1016 30 845 24.95 0.4 32.7 73 -3.9 25
10:25 1016 30 845 24.95 0.3 32.5 73 -3.9 24.9
10:30 1016 30 845 24.95 0.2 32.3 74 -4 24.8
10:35 1016 30 845 24.95 0.4 32.7 73 -3.9 25
10:40 1016 30 845 24.95 0.6 33.2 72 -3.8 25.1
10:45 1016 30 845 24.95 0.7 33.3 72 -3.8 25.2
10:50 1016 30 845 24.95 0.8 33.4 76 -3 26.6
10:55 1016 30 845 24.95 0.8 33.5 75 -3.1 26.5
11:00 1016 30 845 24.95 0.6 33 76 -3.3 26.1
11:05 1016 30 845 24.95 0.3 32.6 77 -3.3 26.1
11:10 1016 30 845 24.95 0.2 32.4 77 -3.3 26
11:15 1016 30 845 24.95 0.4 32.7 76 -3.4 26
11:20 1016 30 845 24.95 0 32.1 77 -3.6 25.6
11:25 1016 30 845 24.95 -0.2 31.7 78 -3.5 25.6
11:30 1016 30 845 24.95 -0.3 31.4 79 -3.5 25.7
11:35 1016 30 845 24.95 -0.3 31.5 78 -3.7 25.3
11:40 1016 30 845 24.95 -0.2 31.6 78 -3.6 25.4
11:45 1015 29.97 845 24.95 0.1 32.2 78 -3.2 26.2
11:50 1015 29.97 844 24.92 -0.1 31.8 79 -3.4 26
11:55 1015 29.97 844 24.92 0.2 32.4 77 -3.4 25.9
12:00 1015 29.97 844 24.92 0.5 32.8 76 -3.2 26.2
12:05 1015 29.97 844 24.92 0.6 33 76 -3.1 26.4
12:10 1015 29.97 844 24.92 0.5 32.9 78 -3 26.6
12:15 1015 29.97 844 24.92 0.7 33.2 75 -3.2 26.2
12:20 1015 29.97 844 24.92 1.4 34.5 72 -3.2 26.3
12:25 1015 29.97 844 24.92 2.4 36.3 67 -3.2 26.3
12:30 1015 29.97 844 24.92 3.5 38.2 62 -3.1 26.5
12:35 1015 29.97 844 24.92 4.5 40.1 58 -3 26.6
12:40 1015 29.97 844 24.92 6 42.7 52 -3.1 26.4
12:45 1015 29.97 844 24.92 5.7 42.2 61 -1.3 29.7
12:50 1015 29.97 844 24.92 3 37.4 66 -2.8 27
12:55 1015 29.97 844 24.92 3.3 37.9 62 -3.4 25.9
13:00 1015 29.97 844 24.92 3.1 37.6 64 -3 26.7
13:05 1015 29.97 844 24.92 3.7 38.7 60 -3.4 25.9
13:10 1015 29.97 844 24.92 4.2 39.6 61 -2.7 27.1
13:15 1015 29.97 844 24.92 4.7 40.5 56 -3.4 25.9
13:20 1015 29.97 844 24.92 5.4 41.7 54 -3.1 26.5
13:25 1015 29.97 844 24.92 6.1 42.9 51 -3.2 26.2
13:30 1015 29.97 844 24.92 6.4 43.5 53 -2.5 27.4
13:35 1015 29.97 844 24.92 5.8 42.4 51 -3.6 25.5
13:40 1015 29.97 844 24.92 6.6 43.9 48 -3.7 25.3
13:45 1015 29.97 844 24.92 6.5 43.7 49 -3.4 25.9
13:50 1015 29.97 844 24.92 6.1 42.9 49 -3.9 24.9
13:55 1015 29.97 844 24.92 5.5 42 52 -3.6 25.5
14:00 1014 29.94 844 24.92 5.2 41.3 54 -3.3 26
14:05 1014 29.94 844 24.92 4.9 40.9 55 -3.5 25.8
14:10 1014 29.94 844 24.92 4.8 40.6 55 -3.6 25.6
14:15 1014 29.94 844 24.92 4.5 40 57 -3.4 26
14:20 1014 29.94 844 24.92 3.5 38.3 59 -3.8 25.1
14:25 1014 29.94 843 24.89 3.1 37.5 61 -3.8 25.1
14:30 1014 29.94 843 24.89 3.2 37.7 61 -3.7 25.3
14:35 1014 29.94 843 24.89 3.2 37.7 59 -4 24.8
14:40 1014 29.94 843 24.89 3.2 37.8 58 -4.3 24.2
14:45 1014 29.94 843 24.89 3.1 37.6 59 -4.1 24.5
14:50 1014 29.94 843 24.89 3 37.5 57 -4.5 23.8
14:55 1014 29.94 843 24.89 3.1 37.5 59 -4.2 24.4
15:00 1014 29.94 843 24.89 3.3 37.9 59 -4 24.7
15:05 1014 29.94 843 24.89 3.6 38.5 64 -2.4 27.6
15:10 1014 29.94 843 24.89 3.4 38.2 65 -2.5 27.5
15:15 1014 29.94 843 24.89 3.3 37.9 65 -2.6 27.2
15:20 1014 29.94 843 24.89 3.2 37.8 59 -4.1 24.6
15:25 1014 29.94 844 24.92 3.9 39.1 56 -4 24.8
15:30 1014 29.94 844 24.92 4.8 40.7 52 -4.1 24.6
15:35 1014 29.94 844 24.92 5.8 42.5 51 -3.4 25.9
15:40 1014 29.94 844 24.92 5.9 42.7 51 -3.4 25.8
15:45 1014 29.94 844 24.92 6 42.9 53 -2.8 27
15:50 1015 29.97 844 24.92 5.8 42.4 52 -3.2 26.2
15:55 1014 29.94 844 24.92 5.9 42.6 47 -4.4 24
16:00 1014 29.94 844 24.92 6.2 43.1 50 -3.4 25.9
16:05 1014 29.94 844 24.92 5.9 42.5 50 -3.6 25.4
16:10 1014 29.94 844 24.92 6.1 43 49 -3.9 25
16:15 1014 29.94 844 24.92 6.3 43.4 49 -3.5 25.7
16:20 1014 29.94 844 24.92 6.2 43.1 51 -3.3 26.1
16:25 1014 29.94 844 24.92 6 42.8 51 -3.3 26
16:30 1014 29.94 843 24.89 5.9 42.6 53 -3 26.7
16:35 1014 29.94 843 24.89 5.6 42.1 54 -3 26.6
16:40 1014 29.94 843 24.89 5.6 42 53 -3.3 26
16:45 1014 29.94 843 24.89 5.8 42.4 52 -3.3 26.1
16:50 1014 29.94 843 24.89 5.9 42.6 51 -3.5 25.6
16:55 1014 29.94 843 24.89 6 42.7 51 -3.5 25.7
17:00 1014 29.94 844 24.92 6 42.8 51 -3.3 26.1
17:05 1014 29.94 844 24.92 5.8 42.4 52 -3.3 26.1
17:10 1014 29.94 843 24.89 6 42.8 50 -3.8 25.2
17:15 1014 29.94 843 24.89 6 42.8 53 -3 26.7
17:20 1014 29.94 843 24.89 5.5 41.9 54 -3.1 26.5
17:25 1014 29.94 844 24.92 5.4 41.8 55 -2.8 26.9
17:30 1014 29.94 844 24.92 5.3 41.5 55 -3 26.6
17:35 1014 29.94 844 24.92 5.3 41.6 56 -2.8 27
17:40 1014 29.94 844 24.92 5.2 41.3 57 -2.7 27.1
17:45 1014 29.94 844 24.92 5.2 41.4 55 -3.1 26.4
17:50 1014 29.94 844 24.92 5.4 41.8 55 -2.8 26.9
17:55 1014 29.94 844 24.92 5.5 41.9 54 -3 26.6
18:00 1014 29.94 844 24.92 5.7 42.2 55 -2.7 27.2
18:05 1015 29.97 844 24.92 5.4 41.8 58 -2.2 28.1
18:10 1015 29.97 844 24.92 5.1 41.2 58 -2.5 27.5
18:15 1015 29.97 844 24.92 5.1 41.2 60 -2.1 28.2
18:20 1015 29.97 844 24.92 4.9 40.8 60 -2.2 28
18:25 1015 29.97 844 24.92 4.9 40.9 60 -2.3 27.9
18:30 1015 29.97 844 24.92 5.1 41.2 62 -1.5 29.2
18:35 1015 29.97 844 24.92 5.2 41.4 60 -2 28.5
18:40 1015 29.97 844 24.92 5.1 41.2 62 -1.5 29.3
18:45 1015 29.97 844 24.92 4.8 40.7 63 -1.6 29.2
18:50 1015 29.97 844 24.92 4.8 40.6 63 -1.8 28.8
18:55 1015 29.97 844 24.92 4.7 40.4 64 -1.5 29.3
19:00 1015 29.97 844 24.92 4.3 39.8 64 -1.8 28.8
19:05 1015 29.97 845 24.95 3.9 39 66 -1.9 28.6
19:10 1015 29.97 845 24.95 3.7 38.6 67 -2 28.5
19:15 1015 29.97 845 24.95 3.6 38.5 69 -1.6 29.1
19:20 1015 29.97 845 24.95 3.6 38.4 71 -1.3 29.7
19:25 1015 29.97 845 24.95 3.6 38.5 71 -1.1 30.1
19:30 1015 29.97 845 24.95 4 39.1 67 -1.5 29.3
19:35 1015 29.97 845 24.95 4.1 39.4 70 -0.8 30.6
19:40 1015 29.97 844 24.92 3.7 38.7 73 -0.6 30.9
19:45 1015 29.97 844 24.92 3.6 38.5 72 -1 30.2
19:50 1015 29.97 844 24.92 3.6 38.5 71 -1.1 30
19:55 1015 29.97 844 24.92 3.7 38.6 69 -1.5 29.3
20:00 1015 29.97 844 24.92 3.8 38.8 67 -1.8 28.8
20:05 1015 29.97 844 24.92 4 39.1 66 -1.8 28.7
20:10 1015 29.97 844 24.92 4 39.2 65 -1.9 28.6
20:15 1015 29.97 844 24.92 4 39.3 65 -1.9 28.5
20:20 1015 29.97 844 24.92 4.2 39.5 64 -2 28.4
20:25 1015 29.97 844 24.92 4.2 39.6 64 -2 28.4
20:30 1015 29.97 844 24.92 4.3 39.8 64 -1.9 28.5
20:35 1015 29.97 844 24.92 4.3 39.7 67 -1.4 29.5
20:40 1015 29.97 844 24.92 3.7 38.7 71 -1 30.1
20:45 1015 29.97 844 24.92 3 37.5 73 -1.3 29.7
20:50 1015 29.97 844 24.92 3.1 37.6 71 -1.6 29.2
20:55 1015 29.97 844 24.92 3.4 38.2 69 -1.7 28.9
21:00 1015 29.97 844 24.92 4.2 39.6 58 -3.4 25.8
21:05 1015 29.97 844 24.92 5.1 41.2 56 -2.9 26.8
21:10 1015 29.97 844 24.92 5.3 41.5 56 -2.8 26.9
21:15 1015 29.97 844 24.92 5.3 41.5 57 -2.6 27.4
21:20 1015 29.97 844 24.92 5.1 41.2 57 -2.7 27.1
21:25 1015 29.97 844 24.92 5 41.1 59 -2.3 27.8
21:30 1015 29.97 844 24.92 4.8 40.7 60 -2.2 28.1
21:35 1015 29.97 844 24.92 4.6 40.3 62 -2 28.4
21:40 1015 29.97 844 24.92 4.4 39.9 63 -2 28.5
21:45 1015 29.97 844 24.92 4.3 39.7 63 -2.1 28.1
21:50 1015 29.97 844 24.92 4.2 39.6 62 -2.3 27.8
21:55 1015 29.97 844 24.92 4.3 39.8 61 -2.5 27.4
22:00 1015 29.97 844 24.92 4.5 40 61 -2.4 27.7
22:05 1015 29.97 844 24.92 4.5 40 61 -2.3 27.8
22:10 1015 29.97 844 24.92 4.4 39.9 61 -2.3 27.8
22:15 1015 29.97 844 24.92 4.3 39.8 62 -2.3 27.9
22:20 1015 29.97 844 24.92 4.2 39.5 63 -2.2 28
22:25 1015 29.97 844 24.92 4.1 39.3 62 -2.5 27.6
22:30 1015 29.97 844 24.92 4.2 39.6 62 -2.5 27.5
22:35 1015 29.97 844 24.92 4.4 39.9 59 -2.9 26.8
22:40 1015 29.97 844 24.92 4.4 39.9 63 -2 28.3
22:45 1015 29.97 844 24.92 3.9 39 66 -2 28.5
22:50 1015 29.97 844 24.92 3.6 38.5 67 -1.9 28.6
22:55 1015 29.97 844 24.92 3.5 38.4 68 -1.8 28.8
23:00 1015 29.97 844 24.92 3.4 38.2 68 -1.9 28.6
23:05 1015 29.97 844 24.92 3.4 38.1 67 -2.2 28.1
23:10 1015 29.97 844 24.92 3.5 38.2 66 -2.2 28
23:15 1015 29.97 844 24.92 3.6 38.4 66 -2.2 28
23:20 1015 29.97 844 24.92 3.8 38.8 58 -3.7 25.3
23:25 1015 29.97 844 24.92 4.4 40 57 -3.4 25.9
23:30 1015 29.97 844 24.92 4.5 40.1 57 -3.3 26
23:35 1015 29.97 844 24.92 4.5 40.1 58 -3.2 26.3
23:40 1015 29.97 844 24.92 4.4 40 58 -3 26.6
23:45 1015 29.97 844 24.92 4.3 39.8 59 -3 26.7
23:50 1015 29.97 844 24.92 4.2 39.6 59 -3 26.5
23:55 1015 29.97 844 24.92 4.2 39.6 60 -2.8 26.9
24:00 1015 29.97 844 24.92 4.1 39.3 62 -2.6 27.3